sensor_id;sensor_type;location;lat;lon;timestamp;pressure;altitude;pressure_sealevel;temperature;humidity
19884;BME280;10104;50.732;10.174;2022-07-29T00:01:51;97920.16;;;19.18;53.46
19884;BME280;10104;50.732;10.174;2022-07-29T00:04:13;97916.09;;;19.15;53.08
19884;BME280;10104;50.732;10.174;2022-07-29T00:06:36;97915.78;;;19.12;53.29
19884;BME280;10104;50.732;10.174;2022-07-29T00:08:57;97911.09;;;19.07;53.11
19884;BME280;10104;50.732;10.174;2022-07-29T00:11:19;97914.59;;;19.08;53.14
19884;BME280;10104;50.732;10.174;2022-07-29T00:13:40;97906.22;;;19.04;53.47
19884;BME280;10104;50.732;10.174;2022-07-29T00:16:02;97904.94;;;19.07;53.22
19884;BME280;10104;50.732;10.174;2022-07-29T00:18:25;97903.31;;;19.06;53.84
19884;BME280;10104;50.732;10.174;2022-07-29T00:20:46;97909.22;;;19.08;53.03
19884;BME280;10104;50.732;10.174;2022-07-29T00:23:08;97907.72;;;19.12;53.26
19884;BME280;10104;50.732;10.174;2022-07-29T00:25:34;97902.72;;;19.04;53.37
19884;BME280;10104;50.732;10.174;2022-07-29T00:27:55;97898.31;;;18.97;53.86
19884;BME280;10104;50.732;10.174;2022-07-29T00:30:17;97897.28;;;18.98;53.63
19884;BME280;10104;50.732;10.174;2022-07-29T00:32:38;97889.00;;;19.00;53.04
19884;BME280;10104;50.732;10.174;2022-07-29T00:35:00;97886.63;;;19.04;53.50
19884;BME280;10104;50.732;10.174;2022-07-29T00:37:40;97884.91;;;18.97;53.85
19884;BME280;10104;50.732;10.174;2022-07-29T00:40:02;97882.47;;;18.96;53.79
19884;BME280;10104;50.732;10.174;2022-07-29T00:42:24;97881.63;;;18.95;54.95
19884;BME280;10104;50.732;10.174;2022-07-29T00:44:45;97868.38;;;18.89;55.68
19884;BME280;10104;50.732;10.174;2022-07-29T00:47:09;97872.03;;;18.83;56.60
19884;BME280;10104;50.732;10.174;2022-07-29T00:49:31;97881.16;;;18.82;56.12
19884;BME280;10104;50.732;10.174;2022-07-29T00:51:53;97874.47;;;18.84;56.26
19884;BME280;10104;50.732;10.174;2022-07-29T00:54:15;97876.59;;;18.82;57.17
19884;BME280;10104;50.732;10.174;2022-07-29T00:56:37;97878.03;;;18.73;57.95
19884;BME280;10104;50.732;10.174;2022-07-29T00:58:59;97870.72;;;18.69;57.46
19884;BME280;10104;50.732;10.174;2022-07-29T01:01:21;97857.78;;;18.66;57.92
19884;BME280;10104;50.732;10.174;2022-07-29T01:03:42;97847.84;;;18.66;57.70
19884;BME280;10104;50.732;10.174;2022-07-29T01:06:04;97843.75;;;18.75;56.98
19884;BME280;10104;50.732;10.174;2022-07-29T01:08:25;97843.97;;;18.74;56.62
19884;BME280;10104;50.732;10.174;2022-07-29T01:10:47;97837.47;;;18.70;57.89
19884;BME280;10104;50.732;10.174;2022-07-29T01:13:10;97840.19;;;18.58;58.16
19884;BME280;10104;50.732;10.174;2022-07-29T01:15:34;97836.53;;;18.64;57.40
19884;BME280;10104;50.732;10.174;2022-07-29T01:18:16;97839.13;;;18.59;57.80
19884;BME280;10104;50.732;10.174;2022-07-29T01:23:48;97832.50;;;18.62;58.63
19884;BME280;10104;50.732;10.174;2022-07-29T01:31:25;97840.03;;;18.65;59.41
19884;BME280;10104;50.732;10.174;2022-07-29T01:33:57;97833.41;;;18.67;59.27
19884;BME280;10104;50.732;10.174;2022-07-29T01:36:29;97827.28;;;18.72;58.94
19884;BME280;10104;50.732;10.174;2022-07-29T01:39:06;97834.28;;;18.73;58.49
19884;BME280;10104;50.732;10.174;2022-07-29T01:41:31;97827.53;;;18.70;58.61
19884;BME280;10104;50.732;10.174;2022-07-29T01:44:02;97839.50;;;18.63;60.33
19884;BME280;10104;50.732;10.174;2022-07-29T01:46:34;97836.00;;;18.62;62.33
19884;BME280;10104;50.732;10.174;2022-07-29T01:49:10;97833.47;;;18.44;62.57
19884;BME280;10104;50.732;10.174;2022-07-29T01:51:47;97835.56;;;18.42;62.12
19884;BME280;10104;50.732;10.174;2022-07-29T01:54:16;97828.13;;;18.44;61.06
19884;BME280;10104;50.732;10.174;2022-07-29T01:56:42;97825.16;;;18.45;60.50
19884;BME280;10104;50.732;10.174;2022-07-29T01:59:06;97824.25;;;18.40;60.83
19884;BME280;10104;50.732;10.174;2022-07-29T02:01:32;97819.84;;;18.34;60.00
19884;BME280;10104;50.732;10.174;2022-07-29T02:03:54;97822.06;;;18.37;60.65
19884;BME280;10104;50.732;10.174;2022-07-29T02:06:19;97825.16;;;18.45;60.33
19884;BME280;10104;50.732;10.174;2022-07-29T02:08:42;97828.66;;;18.46;62.13
19884;BME280;10104;50.732;10.174;2022-07-29T02:11:06;97824.84;;;18.42;62.50
19884;BME280;10104;50.732;10.174;2022-07-29T02:13:30;97818.25;;;18.33;63.85
19884;BME280;10104;50.732;10.174;2022-07-29T02:15:53;97818.00;;;18.34;63.32
19884;BME280;10104;50.732;10.174;2022-07-29T02:18:18;97807.28;;;18.34;63.08
19884;BME280;10104;50.732;10.174;2022-07-29T02:20:45;97808.44;;;18.38;62.37
19884;BME280;10104;50.732;10.174;2022-07-29T02:23:10;97807.13;;;18.41;62.34
19884;BME280;10104;50.732;10.174;2022-07-29T02:25:33;97807.34;;;18.39;63.90
19884;BME280;10104;50.732;10.174;2022-07-29T02:27:59;97792.41;;;18.27;65.22
19884;BME280;10104;50.732;10.174;2022-07-29T02:30:22;97802.88;;;18.28;64.71
19884;BME280;10104;50.732;10.174;2022-07-29T02:32:46;97796.69;;;18.28;65.33
19884;BME280;10104;50.732;10.174;2022-07-29T02:35:10;97799.22;;;18.34;64.87
19884;BME280;10104;50.732;10.174;2022-07-29T02:37:35;97801.28;;;18.44;63.99
19884;BME280;10104;50.732;10.174;2022-07-29T02:39:59;97804.44;;;18.41;63.50
19884;BME280;10104;50.732;10.174;2022-07-29T02:42:22;97804.03;;;18.32;65.10
19884;BME280;10104;50.732;10.174;2022-07-29T02:44:44;97804.09;;;18.21;65.53
19884;BME280;10104;50.732;10.174;2022-07-29T02:47:31;97810.81;;;18.23;65.37
19884;BME280;10104;50.732;10.174;2022-07-29T02:50:06;97809.66;;;18.19;64.82
19884;BME280;10104;50.732;10.174;2022-07-29T02:52:44;97814.06;;;18.25;63.56
19884;BME280;10104;50.732;10.174;2022-07-29T02:55:18;97814.91;;;18.26;63.22
19884;BME280;10104;50.732;10.174;2022-07-29T02:57:47;97809.31;;;18.15;64.12
19884;BME280;10104;50.732;10.174;2022-07-29T03:00:16;97803.53;;;18.07;64.33
19884;BME280;10104;50.732;10.174;2022-07-29T03:02:42;97797.81;;;18.03;64.92
19884;BME280;10104;50.732;10.174;2022-07-29T03:05:07;97804.00;;;18.04;63.40
19884;BME280;10104;50.732;10.174;2022-07-29T03:07:31;97811.53;;;18.18;61.67
19884;BME280;10104;50.732;10.174;2022-07-29T03:09:53;97810.84;;;18.11;61.14
19884;BME280;10104;50.732;10.174;2022-07-29T03:12:15;97817.75;;;18.07;61.58
19884;BME280;10104;50.732;10.174;2022-07-29T03:14:38;97819.84;;;18.05;61.65
19884;BME280;10104;50.732;10.174;2022-07-29T03:17:00;97811.81;;;18.05;61.55
19884;BME280;10104;50.732;10.174;2022-07-29T03:19:22;97808.63;;;18.08;61.38
19884;BME280;10104;50.732;10.174;2022-07-29T03:21:43;97810.66;;;18.01;61.90
19884;BME280;10104;50.732;10.174;2022-07-29T03:24:05;97804.13;;;17.97;62.03
19884;BME280;10104;50.732;10.174;2022-07-29T03:26:32;97805.03;;;18.03;61.57
19884;BME280;10104;50.732;10.174;2022-07-29T03:28:54;97802.28;;;17.98;61.76
19884;BME280;10104;50.732;10.174;2022-07-29T03:31:16;97800.41;;;17.98;61.48
19884;BME280;10104;50.732;10.174;2022-07-29T03:33:37;97804.03;;;17.92;61.01
19884;BME280;10104;50.732;10.174;2022-07-29T03:35:59;97801.34;;;17.92;61.21
19884;BME280;10104;50.732;10.174;2022-07-29T03:38:23;97800.53;;;17.92;61.02
19884;BME280;10104;50.732;10.174;2022-07-29T03:40:53;97804.03;;;17.92;61.03
19884;BME280;10104;50.732;10.174;2022-07-29T03:43:17;97801.59;;;17.91;61.19
19884;BME280;10104;50.732;10.174;2022-07-29T03:45:42;97801.47;;;17.86;62.43
19884;BME280;10104;50.732;10.174;2022-07-29T03:48:08;97804.94;;;17.98;62.40
19884;BME280;10104;50.732;10.174;2022-07-29T03:50:30;97814.06;;;17.85;63.40
19884;BME280;10104;50.732;10.174;2022-07-29T03:52:52;97809.22;;;17.70;64.41
19884;BME280;10104;50.732;10.174;2022-07-29T03:55:14;97806.78;;;17.69;63.30
19884;BME280;10104;50.732;10.174;2022-07-29T03:57:37;97804.00;;;17.64;63.85
19884;BME280;10104;50.732;10.174;2022-07-29T04:00:01;97807.34;;;17.71;62.96
19884;BME280;10104;50.732;10.174;2022-07-29T04:02:24;97813.47;;;17.60;63.60
19884;BME280;10104;50.732;10.174;2022-07-29T04:04:51;97809.44;;;17.57;63.81
19884;BME280;10104;50.732;10.174;2022-07-29T04:07:13;97819.69;;;17.60;63.42
19884;BME280;10104;50.732;10.174;2022-07-29T04:09:35;97823.19;;;17.61;63.11
19884;BME280;10104;50.732;10.174;2022-07-29T04:11:57;97812.03;;;17.64;62.83
19884;BME280;10104;50.732;10.174;2022-07-29T04:14:24;97817.91;;;17.54;63.72
19884;BME280;10104;50.732;10.174;2022-07-29T04:16:46;97817.94;;;17.43;65.06
19884;BME280;10104;50.732;10.174;2022-07-29T04:19:08;97818.19;;;17.53;63.37
19884;BME280;10104;50.732;10.174;2022-07-29T04:21:29;97814.09;;;17.50;66.05
19884;BME280;10104;50.732;10.174;2022-07-29T04:23:51;97821.53;;;17.36;66.39
19884;BME280;10104;50.732;10.174;2022-07-29T04:26:14;97811.66;;;17.25;67.80
19884;BME280;10104;50.732;10.174;2022-07-29T04:28:35;97809.78;;;17.26;67.61
19884;BME280;10104;50.732;10.174;2022-07-29T04:30:57;97809.69;;;17.32;66.41
19884;BME280;10104;50.732;10.174;2022-07-29T04:33:18;97819.09;;;17.35;68.43
19884;BME280;10104;50.732;10.174;2022-07-29T04:35:40;97840.75;;;17.22;70.45
19884;BME280;10104;50.732;10.174;2022-07-29T04:38:12;97838.31;;;17.20;69.41
19884;BME280;10104;50.732;10.174;2022-07-29T04:40:37;97823.63;;;17.23;68.39
19884;BME280;10104;50.732;10.174;2022-07-29T04:43:00;97821.66;;;17.30;67.78
19884;BME280;10104;50.732;10.174;2022-07-29T04:45:27;97828.41;;;17.44;66.55
19884;BME280;10104;50.732;10.174;2022-07-29T04:47:49;97827.72;;;17.60;67.22
19884;BME280;10104;50.732;10.174;2022-07-29T04:50:10;97832.72;;;17.45;68.13
19884;BME280;10104;50.732;10.174;2022-07-29T04:52:32;97828.88;;;17.53;67.77
19884;BME280;10104;50.732;10.174;2022-07-29T04:54:54;97828.75;;;17.59;66.79
19884;BME280;10104;50.732;10.174;2022-07-29T04:57:15;97827.72;;;17.60;66.76
19884;BME280;10104;50.732;10.174;2022-07-29T04:59:37;97838.69;;;17.70;66.73
19884;BME280;10104;50.732;10.174;2022-07-29T05:01:59;97828.88;;;17.88;65.62
19884;BME280;10104;50.732;10.174;2022-07-29T05:04:20;97830.09;;;17.97;65.55
19884;BME280;10104;50.732;10.174;2022-07-29T05:06:42;97831.47;;;18.11;64.79
19884;BME280;10104;50.732;10.174;2022-07-29T05:09:03;97832.75;;;18.20;63.90
19884;BME280;10104;50.732;10.174;2022-07-29T05:11:25;97829.22;;;18.31;63.21
19884;BME280;10104;50.732;10.174;2022-07-29T05:13:50;97832.66;;;18.43;62.15
19884;BME280;10104;50.732;10.174;2022-07-29T05:16:13;97825.16;;;18.57;61.15
19884;BME280;10104;50.732;10.174;2022-07-29T05:18:35;97823.25;;;18.69;59.85
19884;BME280;10104;50.732;10.174;2022-07-29T05:20:56;97824.31;;;18.85;59.64
19884;BME280;10104;50.732;10.174;2022-07-29T05:23:18;97807.97;;;19.03;59.13
19884;BME280;10104;50.732;10.174;2022-07-29T05:25:39;97810.97;;;19.23;58.60
19884;BME280;10104;50.732;10.174;2022-07-29T05:28:04;97809.25;;;19.34;58.36
19884;BME280;10104;50.732;10.174;2022-07-29T05:30:26;97814.22;;;19.42;57.95
19884;BME280;10104;50.732;10.174;2022-07-29T05:32:47;97810.06;;;19.51;57.99
19884;BME280;10104;50.732;10.174;2022-07-29T05:35:09;97807.03;;;19.64;57.28
19884;BME280;10104;50.732;10.174;2022-07-29T05:37:31;97817.75;;;19.81;56.49
19884;BME280;10104;50.732;10.174;2022-07-29T05:39:52;97816.50;;;19.89;55.92
19884;BME280;10104;50.732;10.174;2022-07-29T05:42:17;97817.25;;;19.84;55.30
19884;BME280;10104;50.732;10.174;2022-07-29T05:44:39;97818.47;;;19.93;55.49
19884;BME280;10104;50.732;10.174;2022-07-29T05:47:01;97815.00;;;19.98;54.98
19884;BME280;10104;50.732;10.174;2022-07-29T05:49:22;97823.75;;;20.10;52.98
19884;BME280;10104;50.732;10.174;2022-07-29T05:51:47;97816.63;;;20.20;52.37
19884;BME280;10104;50.732;10.174;2022-07-29T05:54:10;97819.63;;;20.24;52.07
19884;BME280;10104;50.732;10.174;2022-07-29T05:56:32;97818.53;;;20.25;51.66
19884;BME280;10104;50.732;10.174;2022-07-29T05:58:53;97814.97;;;20.36;52.47
19884;BME280;10104;50.732;10.174;2022-07-29T06:01:15;97816.13;;;20.45;52.07
19884;BME280;10104;50.732;10.174;2022-07-29T06:03:37;97816.50;;;20.54;51.25
19884;BME280;10104;50.732;10.174;2022-07-29T06:05:59;97819.53;;;20.63;50.87
19884;BME280;10104;50.732;10.174;2022-07-29T06:08:20;97819.72;;;20.83;50.63
19884;BME280;10104;50.732;10.174;2022-07-29T06:10:42;97816.47;;;20.81;49.92
19884;BME280;10104;50.732;10.174;2022-07-29T06:13:04;97813.28;;;20.84;50.03
19884;BME280;10104;50.732;10.174;2022-07-29T06:15:26;97816.19;;;20.77;49.20
19884;BME280;10104;50.732;10.174;2022-07-29T06:17:47;97819.91;;;21.03;47.67
19884;BME280;10104;50.732;10.174;2022-07-29T06:20:21;97824.91;;;20.89;47.75
19884;BME280;10104;50.732;10.174;2022-07-29T06:22:47;97819.50;;;20.89;47.88
19884;BME280;10104;50.732;10.174;2022-07-29T06:25:09;97825.97;;;20.88;47.87
19884;BME280;10104;50.732;10.174;2022-07-29T06:27:30;97822.09;;;21.11;47.55
19884;BME280;10104;50.732;10.174;2022-07-29T06:29:52;97823.38;;;21.30;46.56
19884;BME280;10104;50.732;10.174;2022-07-29T06:32:14;97826.00;;;21.20;46.49
19884;BME280;10104;50.732;10.174;2022-07-29T06:34:35;97828.53;;;21.37;45.67
19884;BME280;10104;50.732;10.174;2022-07-29T06:36:57;97831.56;;;21.46;45.41
19884;BME280;10104;50.732;10.174;2022-07-29T06:39:20;97836.00;;;21.67;45.32
19884;BME280;10104;50.732;10.174;2022-07-29T06:41:41;97834.19;;;21.72;46.19
19884;BME280;10104;50.732;10.174;2022-07-29T06:44:05;97834.31;;;21.98;46.04
19884;BME280;10104;50.732;10.174;2022-07-29T06:46:27;97826.31;;;22.18;45.07
19884;BME280;10104;50.732;10.174;2022-07-29T06:48:50;97830.97;;;22.28;45.29
19884;BME280;10104;50.732;10.174;2022-07-29T06:51:11;97827.13;;;22.18;44.60
19884;BME280;10104;50.732;10.174;2022-07-29T06:53:33;97825.84;;;22.31;45.10
19884;BME280;10104;50.732;10.174;2022-07-29T06:55:56;97826.16;;;22.45;45.39
19884;BME280;10104;50.732;10.174;2022-07-29T06:58:19;97828.59;;;22.46;45.42
19884;BME280;10104;50.732;10.174;2022-07-29T07:00:42;97837.28;;;22.69;45.46
19884;BME280;10104;50.732;10.174;2022-07-29T07:03:03;97832.47;;;22.76;45.01
19884;BME280;10104;50.732;10.174;2022-07-29T07:05:24;97839.50;;;22.87;44.52
19884;BME280;10104;50.732;10.174;2022-07-29T07:07:46;97835.44;;;23.15;43.78
19884;BME280;10104;50.732;10.174;2022-07-29T07:10:08;97838.44;;;23.18;43.49
19884;BME280;10104;50.732;10.174;2022-07-29T07:12:29;97832.19;;;23.28;43.64
19884;BME280;10104;50.732;10.174;2022-07-29T07:14:51;97827.06;;;23.36;42.91
19884;BME280;10104;50.732;10.174;2022-07-29T07:17:12;97834.63;;;23.60;43.09
19884;BME280;10104;50.732;10.174;2022-07-29T07:19:34;97840.31;;;23.58;42.64
19884;BME280;10104;50.732;10.174;2022-07-29T07:21:55;97847.03;;;23.71;42.60
19884;BME280;10104;50.732;10.174;2022-07-29T07:24:17;97849.50;;;23.72;42.35
19884;BME280;10104;50.732;10.174;2022-07-29T07:26:39;97854.09;;;23.67;42.13
19884;BME280;10104;50.732;10.174;2022-07-29T07:29:01;97857.88;;;23.66;41.53
19884;BME280;10104;50.732;10.174;2022-07-29T07:31:22;97864.66;;;23.68;40.80
19884;BME280;10104;50.732;10.174;2022-07-29T07:33:44;97861.94;;;23.68;41.15
19884;BME280;10104;50.732;10.174;2022-07-29T07:36:06;97857.63;;;23.57;41.77
19884;BME280;10104;50.732;10.174;2022-07-29T07:38:27;97853.59;;;23.50;41.70
19884;BME280;10104;50.732;10.174;2022-07-29T07:40:49;97861.44;;;23.51;42.37
19884;BME280;10104;50.732;10.174;2022-07-29T07:43:10;97863.56;;;23.29;42.32
19884;BME280;10104;50.732;10.174;2022-07-29T07:45:32;97871.13;;;23.17;42.96
19884;BME280;10104;50.732;10.174;2022-07-29T07:47:58;97850.06;;;23.19;43.09
19884;BME280;10104;50.732;10.174;2022-07-29T07:50:20;97846.28;;;23.20;43.38
19884;BME280;10104;50.732;10.174;2022-07-29T07:52:49;97842.75;;;23.14;43.55
19884;BME280;10104;50.732;10.174;2022-07-29T07:55:11;97850.59;;;23.26;42.83
19884;BME280;10104;50.732;10.174;2022-07-29T07:57:32;97850.59;;;23.26;42.63
19884;BME280;10104;50.732;10.174;2022-07-29T07:59:54;97858.41;;;23.17;43.44
19884;BME280;10104;50.732;10.174;2022-07-29T08:02:15;97867.88;;;23.10;43.59
19884;BME280;10104;50.732;10.174;2022-07-29T08:04:37;97872.47;;;23.19;42.93
19884;BME280;10104;50.732;10.174;2022-07-29T08:07:02;97871.66;;;23.24;42.89
19884;BME280;10104;50.732;10.174;2022-07-29T08:09:25;97859.75;;;23.35;43.10
19884;BME280;10104;50.732;10.174;2022-07-29T08:11:51;97859.53;;;23.57;42.52
19884;BME280;10104;50.732;10.174;2022-07-29T08:14:12;97851.38;;;23.72;42.77
19884;BME280;10104;50.732;10.174;2022-07-29T08:16:35;97844.03;;;23.93;42.99
19884;BME280;10104;50.732;10.174;2022-07-29T08:18:56;97848.31;;;24.04;42.52
19884;BME280;10104;50.732;10.174;2022-07-29T08:21:18;97844.22;;;24.22;41.81
19884;BME280;10104;50.732;10.174;2022-07-29T08:23:39;97848.00;;;24.26;41.62
19884;BME280;10104;50.732;10.174;2022-07-29T08:26:13;97843.09;;;24.33;41.52
19884;BME280;10104;50.732;10.174;2022-07-29T08:28:34;97842.28;;;24.32;41.69
19884;BME280;10104;50.732;10.174;2022-07-29T08:30:56;97837.13;;;24.36;41.48
19884;BME280;10104;50.732;10.174;2022-07-29T08:33:17;97841.16;;;24.38;41.73
19884;BME280;10104;50.732;10.174;2022-07-29T08:35:39;97837.44;;;24.29;41.61
19884;BME280;10104;50.732;10.174;2022-07-29T08:38:01;97844.22;;;24.22;41.92
19884;BME280;10104;50.732;10.174;2022-07-29T08:40:24;97839.88;;;24.31;42.63
19884;BME280;10104;50.732;10.174;2022-07-29T08:42:52;97838.25;;;24.30;42.44
19884;BME280;10104;50.732;10.174;2022-07-29T08:45:14;97842.91;;;24.19;42.26
19884;BME280;10104;50.732;10.174;2022-07-29T08:47:38;97841.78;;;24.20;42.53
19884;BME280;10104;50.732;10.174;2022-07-29T08:50:03;97846.38;;;24.14;42.67
19884;BME280;10104;50.732;10.174;2022-07-29T08:52:25;97852.63;;;24.10;42.96
19884;BME280;10104;50.732;10.174;2022-07-29T08:54:48;97850.47;;;24.02;43.44
19884;BME280;10104;50.732;10.174;2022-07-29T08:57:12;97859.19;;;23.94;43.71
19884;BME280;10104;50.732;10.174;2022-07-29T08:59:37;97865.97;;;23.86;44.79
19884;BME280;10104;50.732;10.174;2022-07-29T09:02:03;97886.22;;;23.89;44.30
19884;BME280;10104;50.732;10.174;2022-07-29T09:04:29;97904.06;;;23.95;44.09
19884;BME280;10104;50.732;10.174;2022-07-29T09:06:51;97907.59;;;23.90;45.15
19884;BME280;10104;50.732;10.174;2022-07-29T09:09:14;97903.31;;;23.74;45.86
19884;BME280;10104;50.732;10.174;2022-07-29T09:11:36;97906.25;;;23.42;46.32
19884;BME280;10104;50.732;10.174;2022-07-29T09:13:58;97900.84;;;23.22;46.88
19884;BME280;10104;50.732;10.174;2022-07-29T09:16:20;97889.47;;;23.15;46.95
19884;BME280;10104;50.732;10.174;2022-07-29T09:19:11;97884.38;;;23.18;46.47
19884;BME280;10104;50.732;10.174;2022-07-29T09:21:40;97880.28;;;23.21;46.29
19884;BME280;10104;50.732;10.174;2022-07-29T09:24:20;97879.22;;;23.22;52.71
19884;BME280;10104;50.732;10.174;2022-07-29T09:26:44;97876.50;;;23.27;54.07
19884;BME280;10104;50.732;10.174;2022-07-29T09:29:20;97881.38;;;23.40;56.64
19884;BME280;10104;50.732;10.174;2022-07-29T09:31:49;97873.84;;;23.52;57.47
19884;BME280;10104;50.732;10.174;2022-07-29T09:34:13;97874.66;;;23.68;57.00
19884;BME280;10104;50.732;10.174;2022-07-29T09:36:43;97857.03;;;23.86;55.85
19884;BME280;10104;50.732;10.174;2022-07-29T09:39:05;97851.31;;;23.97;55.60
19884;BME280;10104;50.732;10.174;2022-07-29T09:41:27;97845.88;;;24.07;55.76
19884;BME280;10104;50.732;10.174;2022-07-29T09:43:59;97843.97;;;24.13;56.80
19884;BME280;10104;50.732;10.174;2022-07-29T09:46:20;97838.28;;;24.19;56.67
19884;BME280;10104;50.732;10.174;2022-07-29T09:48:42;97838.78;;;24.27;58.50
19884;BME280;10104;50.732;10.174;2022-07-29T09:51:03;97843.22;;;24.56;60.98
19884;BME280;10104;50.732;10.174;2022-07-29T09:53:37;97832.75;;;24.50;61.62
19884;BME280;10104;50.732;10.174;2022-07-29T09:56:01;97835.25;;;24.36;60.68
19884;BME280;10104;50.732;10.174;2022-07-29T09:58:23;97835.25;;;24.36;61.95
19884;BME280;10104;50.732;10.174;2022-07-29T10:00:46;97834.09;;;24.47;61.17
19884;BME280;10104;50.732;10.174;2022-07-29T10:03:07;97830.97;;;24.20;58.58
19884;BME280;10104;50.732;10.174;2022-07-29T10:05:29;97832.63;;;24.06;62.60
19884;BME280;10104;50.732;10.174;2022-07-29T10:07:57;97827.72;;;24.18;63.66
19884;BME280;10104;50.732;10.174;2022-07-29T10:10:39;97833.72;;;23.95;65.06
19884;BME280;10104;50.732;10.174;2022-07-29T10:13:04;97829.94;;;24.01;64.70
19884;BME280;10104;50.732;10.174;2022-07-29T10:15:33;97823.69;;;24.10;65.25
19884;BME280;10104;50.732;10.174;2022-07-29T10:17:58;97826.28;;;24.41;62.14
19884;BME280;10104;50.732;10.174;2022-07-29T10:20:21;97833.31;;;24.42;62.74
19884;BME280;10104;50.732;10.174;2022-07-29T10:22:43;97835.41;;;24.55;62.07
19884;BME280;10104;50.732;10.174;2022-07-29T10:25:15;97838.44;;;24.48;62.63
19884;BME280;10104;50.732;10.174;2022-07-29T10:27:36;97834.75;;;24.73;60.30
19884;BME280;10104;50.732;10.174;2022-07-29T10:29:58;97834.03;;;25.02;55.95
19884;BME280;10104;50.732;10.174;2022-07-29T10:34:54;97829.50;;;25.26;56.65
19884;BME280;10104;50.732;10.174;2022-07-29T10:42:45;97810.16;;;25.37;54.55
19884;BME280;10104;50.732;10.174;2022-07-29T10:45:08;97802.13;;;25.27;56.03
19884;BME280;10104;50.732;10.174;2022-07-29T10:47:30;97808.69;;;25.21;56.64
19884;BME280;10104;50.732;10.174;2022-07-29T10:49:59;97804.88;;;25.22;56.94
19884;BME280;10104;50.732;10.174;2022-07-29T10:52:22;97801.47;;;25.41;58.41
19884;BME280;10104;50.732;10.174;2022-07-29T10:54:50;97798.75;;;25.41;59.82
19884;BME280;10104;50.732;10.174;2022-07-29T11:02:41;97790.59;;;25.93;53.75
19884;BME280;10104;50.732;10.174;2022-07-29T11:05:05;97800.66;;;26.16;52.56
19884;BME280;10104;50.732;10.174;2022-07-29T11:07:27;97799.94;;;26.30;52.13
19884;BME280;10104;50.732;10.174;2022-07-29T11:14:59;97798.13;;;26.81;48.39
19884;BME280;10104;50.732;10.174;2022-07-29T11:17:23;97797.94;;;26.78;49.27
19884;BME280;10104;50.732;10.174;2022-07-29T11:19:45;97787.78;;;27.02;49.35
19884;BME280;10104;50.732;10.174;2022-07-29T11:22:31;97795.72;;;27.31;48.82
19884;BME280;10104;50.732;10.174;2022-07-29T11:25:16;97788.03;;;27.65;46.21
19884;BME280;10104;50.732;10.174;2022-07-29T11:27:38;97786.84;;;28.12;44.70
19884;BME280;10104;50.732;10.174;2022-07-29T11:30:00;97791.00;;;28.24;45.13
19884;BME280;10104;50.732;10.174;2022-07-29T11:32:36;97785.72;;;28.41;43.93
19884;BME280;10104;50.732;10.174;2022-07-29T11:35:28;97793.91;;;28.77;42.08
19884;BME280;10104;50.732;10.174;2022-07-29T11:38:26;97797.16;;;29.01;42.00
19884;BME280;10104;50.732;10.174;2022-07-29T11:43:46;97786.94;;;29.29;41.51
19884;BME280;10104;50.732;10.174;2022-07-29T11:46:11;97780.75;;;29.37;40.00
19884;BME280;10104;50.732;10.174;2022-07-29T11:48:34;97771.31;;;29.43;40.12
19884;BME280;10104;50.732;10.174;2022-07-29T11:50:56;97769.16;;;29.62;40.85
19884;BME280;10104;50.732;10.174;2022-07-29T11:53:19;97772.56;;;30.16;39.96
19884;BME280;10104;50.732;10.174;2022-07-29T11:55:41;97757.34;;;30.41;37.84
19884;BME280;10104;50.732;10.174;2022-07-29T11:58:12;97755.72;;;30.31;38.12
19884;BME280;10104;50.732;10.174;2022-07-29T12:00:40;97750.25;;;30.40;38.78
19884;BME280;10104;50.732;10.174;2022-07-29T12:03:08;97752.41;;;30.86;38.68
19884;BME280;10104;50.732;10.174;2022-07-29T12:05:34;97747.22;;;31.02;36.61
19884;BME280;10104;50.732;10.174;2022-07-29T12:08:04;97748.47;;;31.30;36.44
19884;BME280;10104;50.732;10.174;2022-07-29T12:10:32;97743.03;;;31.77;35.98
19884;BME280;10104;50.732;10.174;2022-07-29T12:12:54;97743.00;;;32.35;33.74
19884;BME280;10104;50.732;10.174;2022-07-29T12:15:17;97737.97;;;32.67;33.06
19884;BME280;10104;50.732;10.174;2022-07-29T12:17:42;97738.34;;;33.10;32.15
19884;BME280;10104;50.732;10.174;2022-07-29T12:20:04;97735.94;;;33.42;31.77
19884;BME280;10104;50.732;10.174;2022-07-29T12:22:32;97730.47;;;33.66;31.60
19884;BME280;10104;50.732;10.174;2022-07-29T12:24:56;97729.03;;;33.81;30.64
19884;BME280;10104;50.732;10.174;2022-07-29T12:27:42;97731.78;;;33.93;30.42
19884;BME280;10104;50.732;10.174;2022-07-29T12:30:09;97732.34;;;34.10;30.39
19884;BME280;10104;50.732;10.174;2022-07-29T12:32:40;97722.78;;;34.44;30.39
19884;BME280;10104;50.732;10.174;2022-07-29T12:35:04;97708.28;;;35.15;29.87
19884;BME280;10104;50.732;10.174;2022-07-29T12:37:26;97709.59;;;35.81;28.99
19884;BME280;10104;50.732;10.174;2022-07-29T12:40:03;97709.41;;;36.40;28.08
19884;BME280;10104;50.732;10.174;2022-07-29T12:42:25;97699.94;;;37.41;26.15
19884;BME280;10104;50.732;10.174;2022-07-29T12:44:49;97700.16;;;38.00;25.91
19884;BME280;10104;50.732;10.174;2022-07-29T12:47:11;97699.22;;;38.45;25.51
19884;BME280;10104;50.732;10.174;2022-07-29T12:49:32;97689.53;;;39.29;24.95
19884;BME280;10104;50.732;10.174;2022-07-29T12:51:58;97690.94;;;39.49;23.87
19884;BME280;10104;50.732;10.174;2022-07-29T12:54:20;97676.63;;;39.91;23.06
19884;BME280;10104;50.732;10.174;2022-07-29T12:56:43;97669.25;;;40.17;23.71
19884;BME280;10104;50.732;10.174;2022-07-29T12:59:16;97668.31;;;40.67;22.90
19884;BME280;10104;50.732;10.174;2022-07-29T13:01:38;97672.34;;;40.84;22.57
19884;BME280;10104;50.732;10.174;2022-07-29T13:04:00;97668.38;;;40.99;22.47
19884;BME280;10104;50.732;10.174;2022-07-29T13:06:40;97664.47;;;41.14;22.47